Carterton, Virginia
Current Conditions -  °F | °C
As of 7:15 AM on Monday 26 Jan 2015 (Local Time) from KVJI Reporting Station
Overcast Overcast  
Wind Chill: 35°   Ceiling: 1000
Heat Index: 39°   Visibility: 10mi
Dew Point: 38°   Wind: 6mph
Humidity: 94%   Direction: 260°W
Pressure: 29.64"   Gusts: NA
Location:  36.85°N, 82.1249°W
Report Text: KVJI 261215Z AUTO 26005KT 10SM BKN010 OVC014 04/03 A2964 RMK AO2 T00400031
Loading
Personal Weather Stations






























Interactive Weather Map New forecast layout! Learn more

10-Day Weather Forecast

Advertisements
Track Severe Weather on mobile